sensor_id;sensor_type;location;lat;lon;timestamp;pressure;altitude;pressure_sealevel;temperature;humidity
19208;BME280;9737;59.466;18.036;2024-01-06T00:02:09;90101.59;;;-13.82;78.15
19208;BME280;9737;59.466;18.036;2024-01-06T00:04:37;90074.22;;;-13.86;78.34
19208;BME280;9737;59.466;18.036;2024-01-06T00:07:05;90083.97;;;-13.83;78.56
19208;BME280;9737;59.466;18.036;2024-01-06T00:09:33;90069.53;;;-13.89;78.11
19208;BME280;9737;59.466;18.036;2024-01-06T00:12:01;90079.31;;;-13.86;78.12
19208;BME280;9737;59.466;18.036;2024-01-06T00:14:30;90017.97;;;-14.03;77.98
19208;BME280;9737;59.466;18.036;2024-01-06T00:16:58;89989.50;;;-14.12;78.36
19208;BME280;9737;59.466;18.036;2024-01-06T00:19:26;89988.50;;;-14.11;78.16
19208;BME280;9737;59.466;18.036;2024-01-06T00:21:54;89985.19;;;-14.11;78.47
19208;BME280;9737;59.466;18.036;2024-01-06T00:24:22;90022.84;;;-14.01;78.35
19208;BME280;9737;59.466;18.036;2024-01-06T00:26:50;90043.13;;;-13.95;78.06
19208;BME280;9737;59.466;18.036;2024-01-06T00:29:17;90064.44;;;-13.89;78.11
19208;BME280;9737;59.466;18.036;2024-01-06T00:31:46;90057.44;;;-13.94;78.41
19208;BME280;9737;59.466;18.036;2024-01-06T00:34:14;90030.06;;;-13.98;78.64
19208;BME280;9737;59.466;18.036;2024-01-06T00:36:42;90016.44;;;-14.04;78.16
19208;BME280;9737;59.466;18.036;2024-01-06T00:39:10;89965.88;;;-14.19;78.54
19208;BME280;9737;59.466;18.036;2024-01-06T00:41:38;89895.66;;;-14.38;78.09
19208;BME280;9737;59.466;18.036;2024-01-06T00:44:06;89837.19;;;-14.56;78.02
19208;BME280;9737;59.466;18.036;2024-01-06T00:46:34;89798.56;;;-14.65;78.54
19208;BME280;9737;59.466;18.036;2024-01-06T00:49:03;89777.53;;;-14.72;78.35
19208;BME280;9737;59.466;18.036;2024-01-06T00:51:31;89790.59;;;-14.68;78.00
19208;BME280;9737;59.466;18.036;2024-01-06T00:54:09;89804.44;;;-14.64;78.13
19208;BME280;9737;59.466;18.036;2024-01-06T00:56:37;89825.47;;;-14.57;78.20
19208;BME280;9737;59.466;18.036;2024-01-06T00:59:05;89916.13;;;-14.33;78.55
19208;BME280;9737;59.466;18.036;2024-01-06T01:01:32;89923.13;;;-14.28;78.04
19208;BME280;9737;59.466;18.036;2024-01-06T01:04:02;89918.69;;;-14.33;77.96
19208;BME280;9737;59.466;18.036;2024-01-06T01:06:31;89872.88;;;-14.45;78.01
19208;BME280;9737;59.466;18.036;2024-01-06T01:08:59;89815.16;;;-14.62;77.83
19208;BME280;9737;59.466;18.036;2024-01-06T01:11:27;89780.88;;;-14.72;77.93
19208;BME280;9737;59.466;18.036;2024-01-06T01:13:55;89757.28;;;-14.79;77.87
19208;BME280;9737;59.466;18.036;2024-01-06T01:16:23;89765.44;;;-14.77;77.90
19208;BME280;9737;59.466;18.036;2024-01-06T01:18:51;89759.81;;;-14.79;78.64
19208;BME280;9737;59.466;18.036;2024-01-06T01:21:20;89773.88;;;-14.76;78.52
19208;BME280;9737;59.466;18.036;2024-01-06T01:23:48;89747.53;;;-14.82;77.98
19208;BME280;9737;59.466;18.036;2024-01-06T01:26:16;89693.56;;;-14.95;78.03
19208;BME280;9737;59.466;18.036;2024-01-06T01:28:44;89702.50;;;-14.93;78.19
19208;BME280;9737;59.466;18.036;2024-01-06T01:31:12;89681.06;;;-14.97;77.94
19208;BME280;9737;59.466;18.036;2024-01-06T01:33:40;89647.19;;;-15.09;78.40
19208;BME280;9737;59.466;18.036;2024-01-06T01:36:08;89631.84;;;-15.14;78.60
19208;BME280;9737;59.466;18.036;2024-01-06T01:38:38;89665.09;;;-15.04;78.41
19208;BME280;9737;59.466;18.036;2024-01-06T01:41:05;89649.75;;;-15.09;77.93
19208;BME280;9737;59.466;18.036;2024-01-06T01:43:33;89618.03;;;-15.18;78.46
19208;BME280;9737;59.466;18.036;2024-01-06T01:46:01;89594.03;;;-15.22;77.95
19208;BME280;9737;59.466;18.036;2024-01-06T01:48:29;89582.75;;;-15.26;78.27
19208;BME280;9737;59.466;18.036;2024-01-06T01:50:58;89577.13;;;-15.28;78.62
19208;BME280;9737;59.466;18.036;2024-01-06T01:53:27;89588.63;;;-15.26;78.12
19208;BME280;9737;59.466;18.036;2024-01-06T01:55:56;89598.56;;;-15.24;77.80
19208;BME280;9737;59.466;18.036;2024-01-06T01:58:24;89607.28;;;-15.20;78.59
19208;BME280;9737;59.466;18.036;2024-01-06T02:00:53;89591.94;;;-15.25;78.24
19208;BME280;9737;59.466;18.036;2024-01-06T02:03:22;89562.31;;;-15.31;77.62
19208;BME280;9737;59.466;18.036;2024-01-06T02:05:52;89569.16;;;-15.32;78.61
19208;BME280;9737;59.466;18.036;2024-01-06T02:08:20;89577.13;;;-15.28;78.03
19208;BME280;9737;59.466;18.036;2024-01-06T02:10:49;89574.03;;;-15.30;78.47
19208;BME280;9737;59.466;18.036;2024-01-06T02:13:18;89575.13;;;-15.26;78.26
19208;BME280;9737;59.466;18.036;2024-01-06T02:15:46;89548.69;;;-15.37;78.43
19208;BME280;9737;59.466;18.036;2024-01-06T02:18:14;89525.50;;;-15.41;77.66
19208;BME280;9737;59.466;18.036;2024-01-06T02:20:43;89538.22;;;-15.41;78.13
19208;BME280;9737;59.466;18.036;2024-01-06T02:23:12;89512.13;;;-15.48;77.77
19208;BME280;9737;59.466;18.036;2024-01-06T02:25:40;89520.88;;;-15.44;77.89
19208;BME280;9737;59.466;18.036;2024-01-06T02:28:08;89479.44;;;-15.56;78.17
19208;BME280;9737;59.466;18.036;2024-01-06T02:30:36;89460.59;;;-15.60;78.11
19208;BME280;9737;59.466;18.036;2024-01-06T02:33:04;89474.13;;;-15.54;78.33
19208;BME280;9737;59.466;18.036;2024-01-06T02:35:32;89442.13;;;-15.67;78.27
19208;BME280;9737;59.466;18.036;2024-01-06T02:38:00;89420.72;;;-15.71;78.50
19208;BME280;9737;59.466;18.036;2024-01-06T02:40:30;89415.63;;;-15.71;78.60
19208;BME280;9737;59.466;18.036;2024-01-06T02:42:58;89462.34;;;-15.60;78.51
19208;BME280;9737;59.466;18.036;2024-01-06T02:45:26;89505.28;;;-15.47;77.94
19208;BME280;9737;59.466;18.036;2024-01-06T02:47:54;89572.03;;;-15.28;78.25
19208;BME280;9737;59.466;18.036;2024-01-06T02:50:22;89669.78;;;-15.01;78.49
19208;BME280;9737;59.466;18.036;2024-01-06T02:52:50;89720.22;;;-14.86;78.05
19208;BME280;9737;59.466;18.036;2024-01-06T02:55:18;89730.72;;;-14.83;77.78
19208;BME280;9737;59.466;18.036;2024-01-06T02:57:47;89743.00;;;-14.80;78.18
19208;BME280;9737;59.466;18.036;2024-01-06T03:00:16;89768.00;;;-14.77;78.44
19208;BME280;9737;59.466;18.036;2024-01-06T03:02:44;89823.91;;;-14.58;78.01
19208;BME280;9737;59.466;18.036;2024-01-06T03:05:12;89858.00;;;-14.48;78.46
19208;BME280;9737;59.466;18.036;2024-01-06T03:07:40;89920.78;;;-14.30;78.28
19208;BME280;9737;59.466;18.036;2024-01-06T03:10:08;89947.47;;;-14.21;78.22
19208;BME280;9737;59.466;18.036;2024-01-06T03:12:36;89974.22;;;-14.12;78.33
19208;BME280;9737;59.466;18.036;2024-01-06T03:15:06;89991.81;;;-14.10;78.37
19208;BME280;9737;59.466;18.036;2024-01-06T03:17:34;90071.84;;;-13.88;78.70
19208;BME280;9737;59.466;18.036;2024-01-06T03:20:03;90096.84;;;-13.78;78.35
19208;BME280;9737;59.466;18.036;2024-01-06T03:24:59;90207.22;;;-13.48;78.44
19208;BME280;9737;59.466;18.036;2024-01-06T03:27:27;90276.06;;;-13.29;78.49
19208;BME280;9737;59.466;18.036;2024-01-06T03:29:56;90364.22;;;-13.03;78.27
19208;BME280;9737;59.466;18.036;2024-01-06T03:32:25;90409.25;;;-12.91;78.79
19208;BME280;9737;59.466;18.036;2024-01-06T03:34:55;90460.16;;;-12.77;78.40
19208;BME280;9737;59.466;18.036;2024-01-06T03:37:23;90537.91;;;-12.55;78.48
19208;BME280;9737;59.466;18.036;2024-01-06T03:39:51;90556.91;;;-12.51;78.52
19208;BME280;9737;59.466;18.036;2024-01-06T03:42:18;90599.22;;;-12.37;78.64
19208;BME280;9737;59.466;18.036;2024-01-06T03:44:47;90633.72;;;-12.28;78.48
19208;BME280;9737;59.466;18.036;2024-01-06T03:47:14;90651.97;;;-12.24;78.57
19208;BME280;9737;59.466;18.036;2024-01-06T03:49:44;90651.75;;;-12.23;78.63
19208;BME280;9737;59.466;18.036;2024-01-06T03:52:11;90672.53;;;-12.19;78.87
19208;BME280;9737;59.466;18.036;2024-01-06T03:54:40;90671.00;;;-12.20;78.74
19208;BME280;9737;59.466;18.036;2024-01-06T03:57:08;90647.63;;;-12.24;78.65
19208;BME280;9737;59.466;18.036;2024-01-06T03:59:35;90675.09;;;-12.19;78.51
19208;BME280;9737;59.466;18.036;2024-01-06T04:02:03;90642.72;;;-12.25;78.80
19208;BME280;9737;59.466;18.036;2024-01-06T04:04:31;90619.25;;;-12.34;78.77
19208;BME280;9737;59.466;18.036;2024-01-06T04:07:00;90589.88;;;-12.43;78.70
19208;BME280;9737;59.466;18.036;2024-01-06T04:09:28;90574.38;;;-12.48;78.55
19208;BME280;9737;59.466;18.036;2024-01-06T04:11:56;90575.94;;;-12.47;78.59
19208;BME280;9737;59.466;18.036;2024-01-06T04:14:24;90546.34;;;-12.55;78.82
19208;BME280;9737;59.466;18.036;2024-01-06T04:16:52;90539.88;;;-12.57;78.34
19208;BME280;9737;59.466;18.036;2024-01-06T04:19:20;90524.00;;;-12.59;79.23
19208;BME280;9737;59.466;18.036;2024-01-06T04:21:48;90543.00;;;-12.55;78.67
19208;BME280;9737;59.466;18.036;2024-01-06T04:24:17;90529.88;;;-12.59;78.76
19208;BME280;9737;59.466;18.036;2024-01-06T04:26:45;90509.53;;;-12.65;78.34
19208;BME280;9737;59.466;18.036;2024-01-06T04:29:13;90485.03;;;-12.73;78.78
19208;BME280;9737;59.466;18.036;2024-01-06T04:31:41;90458.59;;;-12.78;78.78
19208;BME280;9737;59.466;18.036;2024-01-06T04:34:09;90465.25;;;-12.77;79.01
19208;BME280;9737;59.466;18.036;2024-01-06T04:36:37;90475.47;;;-12.77;78.76
19208;BME280;9737;59.466;18.036;2024-01-06T04:39:05;90475.03;;;-12.74;78.63
19208;BME280;9737;59.466;18.036;2024-01-06T04:41:35;90494.06;;;-12.70;78.72
19208;BME280;9737;59.466;18.036;2024-01-06T04:44:03;90498.97;;;-12.69;78.78
19208;BME280;9737;59.466;18.036;2024-01-06T04:46:31;90518.31;;;-12.61;78.49
19208;BME280;9737;59.466;18.036;2024-01-06T04:48:59;90544.56;;;-12.54;78.83
19208;BME280;9737;59.466;18.036;2024-01-06T04:51:27;90555.34;;;-12.52;78.57
19208;BME280;9737;59.466;18.036;2024-01-06T04:53:55;90574.59;;;-12.49;78.54
19208;BME280;9737;59.466;18.036;2024-01-06T04:56:23;90573.38;;;-12.47;78.87
19208;BME280;9737;59.466;18.036;2024-01-06T04:58:52;90573.94;;;-12.45;78.84
19208;BME280;9737;59.466;18.036;2024-01-06T05:01:20;90586.72;;;-12.45;78.78
19208;BME280;9737;59.466;18.036;2024-01-06T05:03:47;90583.16;;;-12.44;78.98
19208;BME280;9737;59.466;18.036;2024-01-06T05:06:16;90571.38;;;-12.45;78.66
19208;BME280;9737;59.466;18.036;2024-01-06T05:08:43;90559.03;;;-12.48;78.74
19208;BME280;9737;59.466;18.036;2024-01-06T05:11:12;90569.25;;;-12.48;78.83
19208;BME280;9737;59.466;18.036;2024-01-06T05:13:40;90547.13;;;-12.54;78.76
19208;BME280;9737;59.466;18.036;2024-01-06T05:16:09;90502.88;;;-12.66;78.72
19208;BME280;9737;59.466;18.036;2024-01-06T05:18:37;90464.47;;;-12.78;78.87
19208;BME280;9737;59.466;18.036;2024-01-06T05:21:05;90429.25;;;-12.88;78.76
19208;BME280;9737;59.466;18.036;2024-01-06T05:23:33;90421.03;;;-12.90;78.73
19208;BME280;9737;59.466;18.036;2024-01-06T05:26:01;90424.13;;;-12.88;78.73
19208;BME280;9737;59.466;18.036;2024-01-06T05:28:29;90440.59;;;-12.84;78.86
19208;BME280;9737;59.466;18.036;2024-01-06T05:30:57;90409.69;;;-12.94;78.72
19208;BME280;9737;59.466;18.036;2024-01-06T05:33:26;90409.25;;;-12.91;78.74
19208;BME280;9737;59.466;18.036;2024-01-06T05:35:54;90401.47;;;-12.96;78.75
19208;BME280;9737;59.466;18.036;2024-01-06T05:38:22;90394.03;;;-12.97;78.79
19208;BME280;9737;59.466;18.036;2024-01-06T05:40:50;90426.13;;;-12.90;78.68
19208;BME280;9737;59.466;18.036;2024-01-06T05:43:18;90434.91;;;-12.86;78.68
19208;BME280;9737;59.466;18.036;2024-01-06T05:45:46;90439.03;;;-12.85;78.79
19208;BME280;9737;59.466;18.036;2024-01-06T05:48:14;90444.13;;;-12.85;78.82
19208;BME280;9737;59.466;18.036;2024-01-06T05:50:43;90442.16;;;-12.83;78.62
19208;BME280;9737;59.466;18.036;2024-01-06T05:53:11;90451.16;;;-12.80;78.97
19208;BME280;9737;59.466;18.036;2024-01-06T05:55:41;90464.25;;;-12.76;78.76
19208;BME280;9737;59.466;18.036;2024-01-06T05:58:08;90484.84;;;-12.71;78.78
19208;BME280;9737;59.466;18.036;2024-01-06T06:00:36;90480.72;;;-12.72;78.94
19208;BME280;9737;59.466;18.036;2024-01-06T06:03:04;90469.38;;;-12.76;79.02
19208;BME280;9737;59.466;18.036;2024-01-06T06:05:34;90456.25;;;-12.80;78.82
19208;BME280;9737;59.466;18.036;2024-01-06T06:08:04;90459.38;;;-12.78;78.91
19208;BME280;9737;59.466;18.036;2024-01-06T06:10:32;90454.47;;;-12.79;78.91
19208;BME280;9737;59.466;18.036;2024-01-06T06:13:18;90513.66;;;-12.64;78.84
19208;BME280;9737;59.466;18.036;2024-01-06T06:15:46;90507.75;;;-12.65;78.90
19208;BME280;9737;59.466;18.036;2024-01-06T06:18:14;90481.72;;;-12.73;78.78
19208;BME280;9737;59.466;18.036;2024-01-06T06:20:43;90460.16;;;-12.77;78.81
19208;BME280;9737;59.466;18.036;2024-01-06T06:23:12;90448.81;;;-12.82;78.65
19208;BME280;9737;59.466;18.036;2024-01-06T06:25:40;90441.03;;;-12.87;78.84
19208;BME280;9737;59.466;18.036;2024-01-06T06:28:08;90400.47;;;-12.95;78.64
19208;BME280;9737;59.466;18.036;2024-01-06T06:30:36;90408.13;;;-12.95;78.74
19208;BME280;9737;59.466;18.036;2024-01-06T06:33:04;90414.34;;;-12.91;78.91
19208;BME280;9737;59.466;18.036;2024-01-06T06:35:32;90405.34;;;-12.93;78.57
19208;BME280;9737;59.466;18.036;2024-01-06T06:38:01;90435.91;;;-12.87;78.88
19208;BME280;9737;59.466;18.036;2024-01-06T06:40:30;90442.34;;;-12.84;78.98
19208;BME280;9737;59.466;18.036;2024-01-06T06:42:58;90451.94;;;-12.79;79.09
19208;BME280;9737;59.466;18.036;2024-01-06T06:45:26;90464.47;;;-12.78;79.04
19208;BME280;9737;59.466;18.036;2024-01-06T06:47:54;90488.38;;;-12.72;79.08
19208;BME280;9737;59.466;18.036;2024-01-06T06:50:22;90490.75;;;-12.71;78.97
19208;BME280;9737;59.466;18.036;2024-01-06T06:52:50;90507.97;;;-12.66;78.78
19208;BME280;9737;59.466;18.036;2024-01-06T06:55:18;90530.66;;;-12.58;78.88
19208;BME280;9737;59.466;18.036;2024-01-06T06:57:47;90535.00;;;-12.59;78.92
19208;BME280;9737;59.466;18.036;2024-01-06T07:00:15;90516.75;;;-12.62;78.73
19208;BME280;9737;59.466;18.036;2024-01-06T07:02:44;90491.75;;;-12.72;78.93
19208;BME280;9737;59.466;18.036;2024-01-06T07:05:12;90483.09;;;-12.71;78.88
19208;BME280;9737;59.466;18.036;2024-01-06T07:07:40;90477.59;;;-12.74;78.83
19208;BME280;9737;59.466;18.036;2024-01-06T07:10:10;90499.53;;;-12.67;78.79
19208;BME280;9737;59.466;18.036;2024-01-06T07:12:38;90549.69;;;-12.54;79.03
19208;BME280;9737;59.466;18.036;2024-01-06T07:15:08;90565.91;;;-12.48;78.70
19208;BME280;9737;59.466;18.036;2024-01-06T07:17:37;90579.03;;;-12.45;79.17
19208;BME280;9737;59.466;18.036;2024-01-06T07:20:06;90620.81;;;-12.33;79.06
19208;BME280;9737;59.466;18.036;2024-01-06T07:22:34;90641.38;;;-12.28;78.71
19208;BME280;9737;59.466;18.036;2024-01-06T07:25:03;90655.28;;;-12.24;78.94
19208;BME280;9737;59.466;18.036;2024-01-06T07:27:31;90675.31;;;-12.21;78.80
19208;BME280;9737;59.466;18.036;2024-01-06T07:29:58;90684.13;;;-12.16;79.02
19208;BME280;9737;59.466;18.036;2024-01-06T07:32:28;90717.31;;;-12.10;79.12
19208;BME280;9737;59.466;18.036;2024-01-06T07:34:56;90721.22;;;-12.07;79.21
19208;BME280;9737;59.466;18.036;2024-01-06T07:37:24;90715.31;;;-12.08;78.85
19208;BME280;9737;59.466;18.036;2024-01-06T07:39:52;90712.97;;;-12.09;78.72
19208;BME280;9737;59.466;18.036;2024-01-06T07:42:20;90712.41;;;-12.11;79.29
19208;BME280;9737;59.466;18.036;2024-01-06T07:44:49;90703.97;;;-12.12;78.86
19208;BME280;9737;59.466;18.036;2024-01-06T07:47:16;90727.13;;;-12.07;78.81
19208;BME280;9737;59.466;18.036;2024-01-06T07:49:46;90744.94;;;-12.00;79.19
19208;BME280;9737;59.466;18.036;2024-01-06T07:52:15;90761.22;;;-11.95;79.01
19208;BME280;9737;59.466;18.036;2024-01-06T07:54:43;90767.09;;;-11.94;79.13
19208;BME280;9737;59.466;18.036;2024-01-06T07:57:11;90773.34;;;-11.90;79.01
19208;BME280;9737;59.466;18.036;2024-01-06T07:59:39;90794.94;;;-11.86;79.17
19208;BME280;9737;59.466;18.036;2024-01-06T08:02:07;90800.06;;;-11.86;79.19
19208;BME280;9737;59.466;18.036;2024-01-06T08:04:35;90788.28;;;-11.87;78.99
19208;BME280;9737;59.466;18.036;2024-01-06T08:07:05;90786.16;;;-11.90;79.01
19208;BME280;9737;59.466;18.036;2024-01-06T08:09:33;90772.56;;;-11.91;79.39
19208;BME280;9737;59.466;18.036;2024-01-06T08:12:02;90772.78;;;-11.92;78.94
19208;BME280;9737;59.466;18.036;2024-01-06T08:14:30;90780.03;;;-11.89;79.19
19208;BME280;9737;59.466;18.036;2024-01-06T08:16:58;90795.94;;;-11.87;78.95
19208;BME280;9737;59.466;18.036;2024-01-06T08:19:26;90808.34;;;-11.84;79.38
19208;BME280;9737;59.466;18.036;2024-01-06T08:21:56;90829.50;;;-11.77;79.01
19208;BME280;9737;59.466;18.036;2024-01-06T08:24:26;90845.19;;;-11.73;79.24
19208;BME280;9737;59.466;18.036;2024-01-06T08:26:54;90869.16;;;-11.68;79.33
19208;BME280;9737;59.466;18.036;2024-01-06T08:29:22;90896.03;;;-11.59;79.01
19208;BME280;9737;59.466;18.036;2024-01-06T08:31:49;90904.88;;;-11.54;79.31
19208;BME280;9737;59.466;18.036;2024-01-06T08:34:19;90927.25;;;-11.50;78.86
19208;BME280;9737;59.466;18.036;2024-01-06T08:36:47;90952.38;;;-11.40;79.28
19208;BME280;9737;59.466;18.036;2024-01-06T08:39:15;90980.69;;;-11.35;79.01
19208;BME280;9737;59.466;18.036;2024-01-06T08:41:44;91001.69;;;-11.27;78.89
19208;BME280;9737;59.466;18.036;2024-01-06T08:44:13;91005.03;;;-11.26;79.36
19208;BME280;9737;59.466;18.036;2024-01-06T08:46:41;91005.81;;;-11.26;79.15
19208;BME280;9737;59.466;18.036;2024-01-06T08:49:09;90986.38;;;-11.33;79.43
19208;BME280;9737;59.466;18.036;2024-01-06T08:51:37;90976.34;;;-11.35;79.32
19208;BME280;9737;59.466;18.036;2024-01-06T08:54:05;90995.97;;;-11.29;79.42
19208;BME280;9737;59.466;18.036;2024-01-06T08:56:33;91026.47;;;-11.20;79.11
19208;BME280;9737;59.466;18.036;2024-01-06T08:59:03;91065.19;;;-11.10;79.12
19208;BME280;9737;59.466;18.036;2024-01-06T09:01:31;91111.97;;;-10.97;79.49
19208;BME280;9737;59.466;18.036;2024-01-06T09:04:01;91140.88;;;-10.89;79.10
19208;BME280;9737;59.466;18.036;2024-01-06T09:06:29;91158.97;;;-10.84;79.31
19208;BME280;9737;59.466;18.036;2024-01-06T09:08:58;91181.97;;;-10.78;79.52
19208;BME280;9737;59.466;18.036;2024-01-06T09:11:26;91201.66;;;-10.72;79.15
19208;BME280;9737;59.466;18.036;2024-01-06T09:13:54;91228.47;;;-10.68;79.19
19208;BME280;9737;59.466;18.036;2024-01-06T09:16:23;91260.09;;;-10.55;79.80
19208;BME280;9737;59.466;18.036;2024-01-06T09:18:51;91282.56;;;-10.51;79.46
19208;BME280;9737;59.466;18.036;2024-01-06T09:21:19;91280.00;;;-10.51;79.89
19208;BME280;9737;59.466;18.036;2024-01-06T09:23:47;91287.25;;;-10.48;78.84
19208;BME280;9737;59.466;18.036;2024-01-06T09:26:15;91324.50;;;-10.39;79.38
19208;BME280;9737;59.466;18.036;2024-01-06T09:28:43;91350.88;;;-10.32;79.53
19208;BME280;9737;59.466;18.036;2024-01-06T09:31:11;91387.91;;;-10.21;79.39
19208;BME280;9737;59.466;18.036;2024-01-06T09:33:41;91433.22;;;-10.08;79.06
19208;BME280;9737;59.466;18.036;2024-01-06T09:36:09;91473.38;;;-9.95;79.64
19208;BME280;9737;59.466;18.036;2024-01-06T09:38:39;91481.28;;;-9.97;79.54
19208;BME280;9737;59.466;18.036;2024-01-06T09:41:06;91507.28;;;-9.87;79.15
19208;BME280;9737;59.466;18.036;2024-01-06T09:43:34;91535.50;;;-9.80;79.29
19208;BME280;9737;59.466;18.036;2024-01-06T09:46:06;91519.13;;;-9.86;79.80
19208;BME280;9737;59.466;18.036;2024-01-06T09:48:41;91529.00;;;-9.83;79.00
19208;BME280;9737;59.466;18.036;2024-01-06T09:51:11;91515.56;;;-9.85;79.63
19208;BME280;9737;59.466;18.036;2024-01-06T09:53:46;91479.94;;;-10.00;79.36
19208;BME280;9737;59.466;18.036;2024-01-06T09:56:17;91481.88;;;-9.95;79.36
19208;BME280;9737;59.466;18.036;2024-01-06T09:58:45;91454.47;;;-10.01;78.98
19208;BME280;9737;59.466;18.036;2024-01-06T10:01:14;91451.31;;;-10.03;79.52
19208;BME280;9737;59.466;18.036;2024-01-06T10:03:44;91477.56;;;-10.01;79.17
19208;BME280;9737;59.466;18.036;2024-01-06T10:06:13;91534.72;;;-9.81;79.43
19208;BME280;9737;59.466;18.036;2024-01-06T10:08:42;91526.03;;;-9.80;79.22
19208;BME280;9737;59.466;18.036;2024-01-06T10:11:10;91538.88;;;-9.80;79.33
19208;BME280;9737;59.466;18.036;2024-01-06T10:13:38;91572.56;;;-9.70;79.69
19208;BME280;9737;59.466;18.036;2024-01-06T10:16:06;91624.06;;;-9.58;79.70
19208;BME280;9737;59.466;18.036;2024-01-06T10:18:34;91588.94;;;-9.64;79.59
19208;BME280;9737;59.466;18.036;2024-01-06T10:21:05;91564.88;;;-9.70;79.70
19208;BME280;9737;59.466;18.036;2024-01-06T10:23:33;91535.13;;;-9.84;79.63
19208;BME280;9737;59.466;18.036;2024-01-06T10:26:03;91457.25;;;-10.03;79.48
19208;BME280;9737;59.466;18.036;2024-01-06T10:28:31;91408.34;;;-10.14;79.20
19208;BME280;9737;59.466;18.036;2024-01-06T10:30:59;91384.75;;;-10.23;79.85
19208;BME280;9737;59.466;18.036;2024-01-06T10:33:28;91399.50;;;-10.18;79.75
19208;BME280;9737;59.466;18.036;2024-01-06T10:35:56;91444.03;;;-10.06;79.56
19208;BME280;9737;59.466;18.036;2024-01-06T10:38:26;91518.91;;;-9.84;79.68
19208;BME280;9737;59.466;18.036;2024-01-06T10:40:58;91703.78;;;-9.33;79.79
19208;BME280;9737;59.466;18.036;2024-01-06T10:43:27;92212.31;;;-7.91;79.49
19208;BME280;9737;59.466;18.036;2024-01-06T10:45:56;92678.84;;;-6.64;79.98
19208;BME280;9737;59.466;18.036;2024-01-06T10:48:25;92940.50;;;-5.89;79.80
19208;BME280;9737;59.466;18.036;2024-01-06T10:50:55;93370.47;;;-4.71;79.90
19208;BME280;9737;59.466;18.036;2024-01-06T10:53:23;93726.19;;;-3.78;80.11
19208;BME280;9737;59.466;18.036;2024-01-06T10:55:54;94013.63;;;-3.01;80.12
19208;BME280;9737;59.466;18.036;2024-01-06T10:58:23;94266.84;;;-2.32;80.17
19208;BME280;9737;59.466;18.036;2024-01-06T11:00:51;94226.72;;;-2.44;80.26
19208;BME280;9737;59.466;18.036;2024-01-06T11:03:20;94148.88;;;-2.67;80.25
19208;BME280;9737;59.466;18.036;2024-01-06T11:05:49;94284.09;;;-2.31;80.03
19208;BME280;9737;59.466;18.036;2024-01-06T11:08:17;93937.69;;;-3.25;80.23
19208;BME280;9737;59.466;18.036;2024-01-06T11:10:47;93575.28;;;-4.23;80.50
19208;BME280;9737;59.466;18.036;2024-01-06T11:13:21;93559.50;;;-4.28;80.16
19208;BME280;9737;59.466;18.036;2024-01-06T11:15:51;93422.50;;;-4.65;80.03
19208;BME280;9737;59.466;18.036;2024-01-06T11:18:35;93542.72;;;-4.32;80.15
19208;BME280;9737;59.466;18.036;2024-01-06T11:21:15;93663.19;;;-4.00;80.14
19208;BME280;9737;59.466;18.036;2024-01-06T11:23:45;93563.06;;;-4.29;80.22
19208;BME280;9737;59.466;18.036;2024-01-06T11:26:13;93356.84;;;-4.86;80.16
19208;BME280;9737;59.466;18.036;2024-01-06T11:28:47;92934.91;;;-6.00;80.00
19208;BME280;9737;59.466;18.036;2024-01-06T11:31:15;92644.66;;;-6.79;79.92
19208;BME280;9737;59.466;18.036;2024-01-06T11:33:43;92352.19;;;-7.58;79.68
19208;BME280;9737;59.466;18.036;2024-01-06T11:36:11;92187.38;;;-8.04;80.14
19208;BME280;9737;59.466;18.036;2024-01-06T11:38:41;92180.06;;;-8.07;80.00
19208;BME280;9737;59.466;18.036;2024-01-06T11:41:47;92592.06;;;-6.92;79.73
19208;BME280;9737;59.466;18.036;2024-01-06T11:44:20;93164.66;;;-5.36;80.12
19208;BME280;9737;59.466;18.036;2024-01-06T11:46:48;93631.41;;;-4.09;80.06
19208;BME280;9737;59.466;18.036;2024-01-06T11:49:16;93904.88;;;-3.32;80.13
19208;BME280;9737;59.466;18.036;2024-01-06T11:51:45;93970.34;;;-3.16;80.09
19208;BME280;9737;59.466;18.036;2024-01-06T11:54:13;93754.38;;;-3.75;80.23
19208;BME280;9737;59.466;18.036;2024-01-06T11:56:41;93200.69;;;-5.27;80.04
19208;BME280;9737;59.466;18.036;2024-01-06T11:59:09;92915.59;;;-6.04;80.03
19208;BME280;9737;59.466;18.036;2024-01-06T12:01:39;92493.00;;;-7.24;80.08
19208;BME280;9737;59.466;18.036;2024-01-06T12:04:07;92237.69;;;-7.95;79.74
19208;BME280;9737;59.466;18.036;2024-01-06T12:06:35;91964.19;;;-8.68;79.69
19208;BME280;9737;59.466;18.036;2024-01-06T12:09:04;91797.41;;;-9.16;79.75
19208;BME280;9737;59.466;18.036;2024-01-06T12:11:32;91691.59;;;-9.44;79.66
19208;BME280;9737;59.466;18.036;2024-01-06T12:14:01;91551.13;;;-9.82;79.80
19208;BME280;9737;59.466;18.036;2024-01-06T12:16:29;91443.88;;;-10.11;79.39
19208;BME280;9737;59.466;18.036;2024-01-06T12:19:00;91474.44;;;-10.03;79.57
19208;BME280;9737;59.466;18.036;2024-01-06T12:21:29;91336.75;;;-10.41;79.52
19208;BME280;9737;59.466;18.036;2024-01-06T12:24:12;91248.19;;;-10.68;79.65
19208;BME280;9737;59.466;18.036;2024-01-06T12:26:40;91197.00;;;-10.81;79.68
19208;BME280;9737;59.466;18.036;2024-01-06T12:29:09;91139.16;;;-10.96;79.42
19208;BME280;9737;59.466;18.036;2024-01-06T12:31:38;91079.75;;;-11.11;79.69
19208;BME280;9737;59.466;18.036;2024-01-06T12:34:07;91051.88;;;-11.19;79.51
19208;BME280;9737;59.466;18.036;2024-01-06T12:36:37;90988.56;;;-11.37;79.34
19208;BME280;9737;59.466;18.036;2024-01-06T12:39:09;90952.09;;;-11.50;79.20
19208;BME280;9737;59.466;18.036;2024-01-06T12:41:40;90957.56;;;-11.47;79.74
19208;BME280;9737;59.466;18.036;2024-01-06T12:44:08;90938.72;;;-11.52;79.52
19208;BME280;9737;59.466;18.036;2024-01-06T12:46:36;90883.72;;;-11.68;79.65
19208;BME280;9737;59.466;18.036;2024-01-06T12:49:04;90866.44;;;-11.73;79.39
19208;BME280;9737;59.466;18.036;2024-01-06T12:51:34;90815.41;;;-11.86;79.09
19208;BME280;9737;59.466;18.036;2024-01-06T12:54:02;90769.94;;;-12.02;79.34
19208;BME280;9737;59.466;18.036;2024-01-06T12:56:30;90718.94;;;-12.15;79.31
19208;BME280;9737;59.466;18.036;2024-01-06T12:58:58;90646.78;;;-12.36;79.32
19208;BME280;9737;59.466;18.036;2024-01-06T13:01:26;90597.38;;;-12.48;79.46
19208;BME280;9737;59.466;18.036;2024-01-06T13:03:54;90544.66;;;-12.61;79.26